Lyman, New Hampshire
Current Conditions -  °F | °C
As of 2:52 AM on Thursday 29 Jan 2015 (Local Time) from KHIE Reporting Station
Clear Clear  
Wind Chill: -19°   Ceiling: Unl
Heat Index: -19°   Visibility: 10mi
Dew Point: -26°   Wind: 0mph
Humidity: 70%   Direction: NA
Pressure: 30.27"   Gusts: NA
Location:  44.2344°N, 71.9186°W
Report Text: KHIE 290752Z AUTO 00000KT 10SM CLR M28/M32 A3027 RMK AO2 SLP282 T12831322
Loading
Personal Weather Stations






























Interactive Weather Map New forecast layout! Learn more

10-Day Weather Forecast

Advertisements
Track Severe Weather on mobile